sensor_id;sensor_type;location;lat;lon;timestamp;temperature;humidity
69281;SHT31;56392;51.082;17.080;2022-09-12T00:01:04;14.70;85.74
69281;SHT31;56392;51.082;17.080;2022-09-12T00:06:17;14.73;85.84
69281;SHT31;56392;51.082;17.080;2022-09-12T00:11:20;14.69;86.05
69281;SHT31;56392;51.082;17.080;2022-09-12T00:16:26;14.84;85.95
69281;SHT31;56392;51.082;17.080;2022-09-12T00:21:28;14.93;85.84
69281;SHT31;56392;51.082;17.080;2022-09-12T00:26:31;14.97;85.58
69281;SHT31;56392;51.082;17.080;2022-09-12T00:31:37;15.06;85.39
69281;SHT31;56392;51.082;17.080;2022-09-12T00:36:40;15.06;85.07
69281;SHT31;56392;51.082;17.080;2022-09-12T00:41:43;15.06;84.96
69281;SHT31;56392;51.082;17.080;2022-09-12T00:46:49;15.11;84.79
69281;SHT31;56392;51.082;17.080;2022-09-12T00:51:56;15.11;84.69
69281;SHT31;56392;51.082;17.080;2022-09-12T00:57:02;15.14;84.31
69281;SHT31;56392;51.082;17.080;2022-09-12T01:02:07;15.10;83.94
69281;SHT31;56392;51.082;17.080;2022-09-12T01:07:12;15.08;83.80
69281;SHT31;56392;51.082;17.080;2022-09-12T01:12:16;15.14;83.52
69281;SHT31;56392;51.082;17.080;2022-09-12T01:17:20;15.01;83.30
69281;SHT31;56392;51.082;17.080;2022-09-12T01:22:37;15.00;83.16
69281;SHT31;56392;51.082;17.080;2022-09-12T01:28:01;14.90;83.06
69281;SHT31;56392;51.082;17.080;2022-09-12T01:33:29;14.81;83.06
69281;SHT31;56392;51.082;17.080;2022-09-12T01:38:36;14.75;83.33
69281;SHT31;56392;51.082;17.080;2022-09-12T01:43:44;14.69;83.33
69281;SHT31;56392;51.082;17.080;2022-09-12T01:48:55;14.62;83.72
69281;SHT31;56392;51.082;17.080;2022-09-12T01:54:04;14.62;83.64
69281;SHT31;56392;51.082;17.080;2022-09-12T01:59:12;14.68;83.65
69281;SHT31;56392;51.082;17.080;2022-09-12T02:04:22;14.75;83.40
69281;SHT31;56392;51.082;17.080;2022-09-12T02:09:28;14.69;83.41
69281;SHT31;56392;51.082;17.080;2022-09-12T02:14:37;14.72;83.64
69281;SHT31;56392;51.082;17.080;2022-09-12T02:19:45;14.62;83.48
69281;SHT31;56392;51.082;17.080;2022-09-12T02:24:53;14.59;83.51
69281;SHT31;56392;51.082;17.080;2022-09-12T02:29:56;14.43;83.58
69281;SHT31;56392;51.082;17.080;2022-09-12T02:35:04;14.36;84.13
69281;SHT31;56392;51.082;17.080;2022-09-12T02:40:09;14.35;84.27
69281;SHT31;56392;51.082;17.080;2022-09-12T02:45:12;14.32;84.25
69281;SHT31;56392;51.082;17.080;2022-09-12T02:50:16;14.26;84.26
69281;SHT31;56392;51.082;17.080;2022-09-12T02:55:20;14.25;84.41
69281;SHT31;56392;51.082;17.080;2022-09-12T03:00:25;14.28;84.46
69281;SHT31;56392;51.082;17.080;2022-09-12T03:05:31;14.31;84.47
69281;SHT31;56392;51.082;17.080;2022-09-12T03:10:41;14.39;84.26
69281;SHT31;56392;51.082;17.080;2022-09-12T03:15:55;14.42;84.42
69281;SHT31;56392;51.082;17.080;2022-09-12T03:21:08;14.38;84.56
69281;SHT31;56392;51.082;17.080;2022-09-12T03:26:17;14.42;84.24
69281;SHT31;56392;51.082;17.080;2022-09-12T03:31:21;14.50;83.94
69281;SHT31;56392;51.082;17.080;2022-09-12T03:36:28;14.48;84.02
69281;SHT31;56392;51.082;17.080;2022-09-12T03:41:31;14.49;83.98
69281;SHT31;56392;51.082;17.080;2022-09-12T03:46:34;14.56;83.75
69281;SHT31;56392;51.082;17.080;2022-09-12T03:51:38;14.48;83.81
69281;SHT31;56392;51.082;17.080;2022-09-12T03:56:41;14.45;84.33
69281;SHT31;56392;51.082;17.080;2022-09-12T04:01:43;14.39;84.39
69281;SHT31;56392;51.082;17.080;2022-09-12T04:06:47;14.39;84.49
69281;SHT31;56392;51.082;17.080;2022-09-12T04:11:50;14.38;84.47
69281;SHT31;56392;51.082;17.080;2022-09-12T04:16:53;14.33;84.21
69281;SHT31;56392;51.082;17.080;2022-09-12T04:22:17;14.36;84.86
69281;SHT31;56392;51.082;17.080;2022-09-12T04:27:40;14.36;84.65
69281;SHT31;56392;51.082;17.080;2022-09-12T04:33:03;14.40;84.70
69281;SHT31;56392;51.082;17.080;2022-09-12T04:38:28;14.45;84.58
69281;SHT31;56392;51.082;17.080;2022-09-12T04:43:53;14.52;84.47
69281;SHT31;56392;51.082;17.080;2022-09-12T04:49:16;14.58;83.88
69281;SHT31;56392;51.082;17.080;2022-09-12T04:54:41;14.63;83.75
69281;SHT31;56392;51.082;17.080;2022-09-12T04:59:45;14.66;83.44
69281;SHT31;56392;51.082;17.080;2022-09-12T05:04:47;14.69;83.34
69281;SHT31;56392;51.082;17.080;2022-09-12T05:09:51;14.77;83.41
69281;SHT31;56392;51.082;17.080;2022-09-12T05:14:55;14.77;83.67
69281;SHT31;56392;51.082;17.080;2022-09-12T05:19:58;14.84;83.49
69281;SHT31;56392;51.082;17.080;2022-09-12T05:25:03;14.93;83.52
69281;SHT31;56392;51.082;17.080;2022-09-12T05:30:08;14.90;82.90
69281;SHT31;56392;51.082;17.080;2022-09-12T05:35:11;15.06;82.85
69281;SHT31;56392;51.082;17.080;2022-09-12T05:40:15;15.27;82.89
69281;SHT31;56392;51.082;17.080;2022-09-12T05:45:19;15.47;82.36
69281;SHT31;56392;51.082;17.080;2022-09-12T05:50:22;15.65;81.61
69281;SHT31;56392;51.082;17.080;2022-09-12T05:55:27;15.91;80.59
69281;SHT31;56392;51.082;17.080;2022-09-12T06:00:31;16.08;79.61
69281;SHT31;56392;51.082;17.080;2022-09-12T06:05:34;16.23;79.12
69281;SHT31;56392;51.082;17.080;2022-09-12T06:10:38;16.65;77.87
69281;SHT31;56392;51.082;17.080;2022-09-12T06:15:41;16.84;77.36
69281;SHT31;56392;51.082;17.080;2022-09-12T06:20:44;16.98;76.00
69281;SHT31;56392;51.082;17.080;2022-09-12T06:25:48;17.43;74.21
69281;SHT31;56392;51.082;17.080;2022-09-12T06:30:50;18.27;72.60
69281;SHT31;56392;51.082;17.080;2022-09-12T06:35:53;18.69;71.69
69281;SHT31;56392;51.082;17.080;2022-09-12T06:40:57;19.04;68.67
69281;SHT31;56392;51.082;17.080;2022-09-12T06:46:01;19.91;67.30
69281;SHT31;56392;51.082;17.080;2022-09-12T06:51:05;20.37;63.80
69281;SHT31;56392;51.082;17.080;2022-09-12T06:56:11;20.73;63.28
69281;SHT31;56392;51.082;17.080;2022-09-12T07:01:16;20.37;64.00
69281;SHT31;56392;51.082;17.080;2022-09-12T07:06:20;20.81;61.03
69281;SHT31;56392;51.082;17.080;2022-09-12T07:11:27;21.27;60.05
69281;SHT31;56392;51.082;17.080;2022-09-12T07:16:31;22.00;56.52
69281;SHT31;56392;51.082;17.080;2022-09-12T07:21:34;23.93;52.33
69281;SHT31;56392;51.082;17.080;2022-09-12T07:26:41;26.75;45.10
69281;SHT31;56392;51.082;17.080;2022-09-12T07:31:44;30.88;36.30
69281;SHT31;56392;51.082;17.080;2022-09-12T07:36:47;34.76;32.59
69281;SHT31;56392;51.082;17.080;2022-09-12T07:41:51;36.40;27.67
69281;SHT31;56392;51.082;17.080;2022-09-12T07:46:54;30.98;35.51
69281;SHT31;56392;51.082;17.080;2022-09-12T07:51:56;29.91;37.18
69281;SHT31;56392;51.082;17.080;2022-09-12T07:57:00;35.21;26.74
69281;SHT31;56392;51.082;17.080;2022-09-12T08:02:03;31.90;33.91
69281;SHT31;56392;51.082;17.080;2022-09-12T08:07:05;31.16;34.45
69281;SHT31;56392;51.082;17.080;2022-09-12T08:12:12;27.47;40.64
69281;SHT31;56392;51.082;17.080;2022-09-12T08:17:15;34.82;29.35
69281;SHT31;56392;51.082;17.080;2022-09-12T08:22:18;38.31;24.32
69281;SHT31;56392;51.082;17.080;2022-09-12T08:27:23;38.67;24.63
69281;SHT31;56392;51.082;17.080;2022-09-12T08:32:26;39.47;22.91
69281;SHT31;56392;51.082;17.080;2022-09-12T08:37:29;39.45;22.53
69281;SHT31;56392;51.082;17.080;2022-09-12T08:42:45;35.21;27.15
69281;SHT31;56392;51.082;17.080;2022-09-12T08:47:50;30.37;33.98
69281;SHT31;56392;51.082;17.080;2022-09-12T08:52:56;35.49;26.38
69281;SHT31;56392;51.082;17.080;2022-09-12T08:58:10;39.47;22.09
69281;SHT31;56392;51.082;17.080;2022-09-12T09:03:26;36.68;25.27
69281;SHT31;56392;51.082;17.080;2022-09-12T09:08:42;34.10;26.27
69281;SHT31;56392;51.082;17.080;2022-09-12T09:13:56;30.31;33.70
69281;SHT31;56392;51.082;17.080;2022-09-12T09:19:22;27.03;39.23
69281;SHT31;56392;51.082;17.080;2022-09-12T09:24:31;24.96;43.88
69281;SHT31;56392;51.082;17.080;2022-09-12T09:29:39;23.70;45.50
69281;SHT31;56392;51.082;17.080;2022-09-12T09:34:45;22.94;47.88
69281;SHT31;56392;51.082;17.080;2022-09-12T09:39:55;22.13;51.42
69281;SHT31;56392;51.082;17.080;2022-09-12T09:45:09;21.88;53.19
69281;SHT31;56392;51.082;17.080;2022-09-12T09:50:15;22.23;53.80
69281;SHT31;56392;51.082;17.080;2022-09-12T09:55:22;24.48;46.75
69281;SHT31;56392;51.082;17.080;2022-09-12T10:00:32;24.90;45.00
69281;SHT31;56392;51.082;17.080;2022-09-12T10:05:44;25.03;44.49
69281;SHT31;56392;51.082;17.080;2022-09-12T10:10:58;24.79;43.41
69281;SHT31;56392;51.082;17.080;2022-09-12T10:16:05;25.03;43.95
69281;SHT31;56392;51.082;17.080;2022-09-12T10:21:27;24.29;45.56
69281;SHT31;56392;51.082;17.080;2022-09-12T10:26:33;23.67;47.56
69281;SHT31;56392;51.082;17.080;2022-09-12T10:31:45;22.92;48.57
69281;SHT31;56392;51.082;17.080;2022-09-12T10:36:52;23.30;49.80
69281;SHT31;56392;51.082;17.080;2022-09-12T10:41:56;23.59;48.36
69281;SHT31;56392;51.082;17.080;2022-09-12T10:47:19;23.62;45.68
69281;SHT31;56392;51.082;17.080;2022-09-12T10:52:23;23.26;47.28
69281;SHT31;56392;51.082;17.080;2022-09-12T10:57:53;23.62;45.90
69281;SHT31;56392;51.082;17.080;2022-09-12T11:03:14;22.88;46.38
69281;SHT31;56392;51.082;17.080;2022-09-12T11:08:27;22.20;49.45
69281;SHT31;56392;51.082;17.080;2022-09-12T11:13:52;21.85;50.63
69281;SHT31;56392;51.082;17.080;2022-09-12T11:19:27;21.56;49.23
69281;SHT31;56392;51.082;17.080;2022-09-12T11:24:51;21.61;49.84
69281;SHT31;56392;51.082;17.080;2022-09-12T11:30:04;21.82;50.37
69281;SHT31;56392;51.082;17.080;2022-09-12T11:35:18;22.34;49.92
69281;SHT31;56392;51.082;17.080;2022-09-12T11:40:28;22.37;48.28
69281;SHT31;56392;51.082;17.080;2022-09-12T11:45:37;22.32;50.62
69281;SHT31;56392;51.082;17.080;2022-09-12T11:50:43;22.07;49.75
69281;SHT31;56392;51.082;17.080;2022-09-12T11:55:52;21.82;49.36
69281;SHT31;56392;51.082;17.080;2022-09-12T12:01:01;21.74;49.62
69281;SHT31;56392;51.082;17.080;2022-09-12T12:06:13;22.02;50.81
69281;SHT31;56392;51.082;17.080;2022-09-12T12:11:28;22.30;49.27
69281;SHT31;56392;51.082;17.080;2022-09-12T12:16:33;22.43;48.62
69281;SHT31;56392;51.082;17.080;2022-09-12T12:21:40;22.48;48.27
69281;SHT31;56392;51.082;17.080;2022-09-12T12:26:58;22.05;49.46
69281;SHT31;56392;51.082;17.080;2022-09-12T12:32:34;21.65;52.07
69281;SHT31;56392;51.082;17.080;2022-09-12T12:37:51;21.20;51.62
69281;SHT31;56392;51.082;17.080;2022-09-12T12:42:59;21.30;53.11
69281;SHT31;56392;51.082;17.080;2022-09-12T12:48:07;21.76;51.98
69281;SHT31;56392;51.082;17.080;2022-09-12T12:53:18;22.32;51.19
69281;SHT31;56392;51.082;17.080;2022-09-12T12:58:28;22.39;50.46
69281;SHT31;56392;51.082;17.080;2022-09-12T13:03:33;22.23;50.47
69281;SHT31;56392;51.082;17.080;2022-09-12T13:08:38;21.90;51.66
69281;SHT31;56392;51.082;17.080;2022-09-12T13:13:48;21.75;52.13
69281;SHT31;56392;51.082;17.080;2022-09-12T13:18:51;21.72;51.89
69281;SHT31;56392;51.082;17.080;2022-09-12T13:24:15;21.59;52.67
69281;SHT31;56392;51.082;17.080;2022-09-12T13:29:21;21.58;52.97
69281;SHT31;56392;51.082;17.080;2022-09-12T13:34:26;21.51;53.69
69281;SHT31;56392;51.082;17.080;2022-09-12T13:39:42;21.49;54.24
69281;SHT31;56392;51.082;17.080;2022-09-12T13:44:50;21.48;53.74
69281;SHT31;56392;51.082;17.080;2022-09-12T13:49:54;21.56;54.26
69281;SHT31;56392;51.082;17.080;2022-09-12T13:55:01;21.51;53.95
69281;SHT31;56392;51.082;17.080;2022-09-12T14:00:12;21.46;53.77
69281;SHT31;56392;51.082;17.080;2022-09-12T14:05:20;21.44;53.04
69281;SHT31;56392;51.082;17.080;2022-09-12T14:10:27;21.49;52.46
69281;SHT31;56392;51.082;17.080;2022-09-12T14:15:34;21.52;52.64
69281;SHT31;56392;51.082;17.080;2022-09-12T14:20:38;21.49;54.60
69281;SHT31;56392;51.082;17.080;2022-09-12T14:25:44;21.51;53.97
69281;SHT31;56392;51.082;17.080;2022-09-12T14:30:58;21.48;53.53
69281;SHT31;56392;51.082;17.080;2022-09-12T14:36:11;21.34;55.26
69281;SHT31;56392;51.082;17.080;2022-09-12T14:41:23;21.17;55.92
69281;SHT31;56392;51.082;17.080;2022-09-12T14:46:31;21.08;55.44
69281;SHT31;56392;51.082;17.080;2022-09-12T14:51:37;20.87;56.99
69281;SHT31;56392;51.082;17.080;2022-09-12T14:56:43;20.77;57.04
69281;SHT31;56392;51.082;17.080;2022-09-12T15:02:24;20.62;57.25
69281;SHT31;56392;51.082;17.080;2022-09-12T15:07:32;20.47;56.65
69281;SHT31;56392;51.082;17.080;2022-09-12T15:12:37;20.42;58.25
69281;SHT31;56392;51.082;17.080;2022-09-12T15:17:39;20.32;57.89
69281;SHT31;56392;51.082;17.080;2022-09-12T15:22:42;20.26;57.67
69281;SHT31;56392;51.082;17.080;2022-09-12T15:27:46;20.12;58.25
69281;SHT31;56392;51.082;17.080;2022-09-12T15:32:50;20.01;60.37
69281;SHT31;56392;51.082;17.080;2022-09-12T15:37:53;19.92;61.77
69281;SHT31;56392;51.082;17.080;2022-09-12T15:42:57;19.85;60.93
69281;SHT31;56392;51.082;17.080;2022-09-12T15:48:00;19.75;61.25
69281;SHT31;56392;51.082;17.080;2022-09-12T15:53:03;19.58;61.81
69281;SHT31;56392;51.082;17.080;2022-09-12T15:58:08;19.38;61.84
69281;SHT31;56392;51.082;17.080;2022-09-12T16:03:19;19.20;63.12
69281;SHT31;56392;51.082;17.080;2022-09-12T16:08:24;18.92;64.59
69281;SHT31;56392;51.082;17.080;2022-09-12T16:13:29;18.68;65.13
69281;SHT31;56392;51.082;17.080;2022-09-12T16:18:31;18.48;66.68
69281;SHT31;56392;51.082;17.080;2022-09-12T16:23:34;18.20;67.83
69281;SHT31;56392;51.082;17.080;2022-09-12T16:28:38;17.98;68.13
69281;SHT31;56392;51.082;17.080;2022-09-12T16:33:41;17.83;68.83
69281;SHT31;56392;51.082;17.080;2022-09-12T16:38:45;17.65;70.42
69281;SHT31;56392;51.082;17.080;2022-09-12T16:43:50;17.45;72.05
69281;SHT31;56392;51.082;17.080;2022-09-12T16:48:56;17.29;72.15
69281;SHT31;56392;51.082;17.080;2022-09-12T16:53:59;17.15;71.95
69281;SHT31;56392;51.082;17.080;2022-09-12T16:59:03;17.00;72.49
69281;SHT31;56392;51.082;17.080;2022-09-12T17:04:06;16.84;73.08
69281;SHT31;56392;51.082;17.080;2022-09-12T17:09:11;16.71;73.60
69281;SHT31;56392;51.082;17.080;2022-09-12T17:14:20;16.60;74.31
69281;SHT31;56392;51.082;17.080;2022-09-12T17:19:25;16.46;75.19
69281;SHT31;56392;51.082;17.080;2022-09-12T17:24:28;16.34;75.65
69281;SHT31;56392;51.082;17.080;2022-09-12T17:29:33;16.14;75.98
69281;SHT31;56392;51.082;17.080;2022-09-12T17:34:37;16.05;76.11
69281;SHT31;56392;51.082;17.080;2022-09-12T17:39:39;15.93;76.43
69281;SHT31;56392;51.082;17.080;2022-09-12T17:44:43;15.79;76.85
69281;SHT31;56392;51.082;17.080;2022-09-12T17:49:46;15.69;77.25
69281;SHT31;56392;51.082;17.080;2022-09-12T17:54:50;15.58;77.62
69281;SHT31;56392;51.082;17.080;2022-09-12T17:59:54;15.45;77.74
69281;SHT31;56392;51.082;17.080;2022-09-12T18:04:57;15.40;78.21
69281;SHT31;56392;51.082;17.080;2022-09-12T18:10:00;15.30;78.59
69281;SHT31;56392;51.082;17.080;2022-09-12T18:15:05;15.23;78.71
69281;SHT31;56392;51.082;17.080;2022-09-12T18:20:08;15.08;78.98
69281;SHT31;56392;51.082;17.080;2022-09-12T18:25:11;14.99;79.35
69281;SHT31;56392;51.082;17.080;2022-09-12T18:30:15;14.90;79.51
69281;SHT31;56392;51.082;17.080;2022-09-12T18:35:21;14.83;79.76
69281;SHT31;56392;51.082;17.080;2022-09-12T18:40:23;14.80;80.31
69281;SHT31;56392;51.082;17.080;2022-09-12T18:45:28;14.75;79.87
69281;SHT31;56392;51.082;17.080;2022-09-12T18:50:30;14.70;80.27
69281;SHT31;56392;51.082;17.080;2022-09-12T18:55:33;14.65;80.78
69281;SHT31;56392;51.082;17.080;2022-09-12T19:00:37;14.58;81.28
69281;SHT31;56392;51.082;17.080;2022-09-12T19:05:41;14.46;81.67
69281;SHT31;56392;51.082;17.080;2022-09-12T19:10:43;14.39;81.82
69281;SHT31;56392;51.082;17.080;2022-09-12T19:15:47;14.33;81.91
69281;SHT31;56392;51.082;17.080;2022-09-12T19:20:50;14.29;81.96
69281;SHT31;56392;51.082;17.080;2022-09-12T19:25:57;14.24;81.89
69281;SHT31;56392;51.082;17.080;2022-09-12T19:31:05;14.14;82.03
69281;SHT31;56392;51.082;17.080;2022-09-12T19:36:10;14.07;82.07
69281;SHT31;56392;51.082;17.080;2022-09-12T19:41:13;14.05;82.19
69281;SHT31;56392;51.082;17.080;2022-09-12T19:46:18;14.05;82.44
69281;SHT31;56392;51.082;17.080;2022-09-12T19:51:21;14.01;82.51
69281;SHT31;56392;51.082;17.080;2022-09-12T19:56:24;13.97;82.92
69281;SHT31;56392;51.082;17.080;2022-09-12T20:01:28;14.01;82.95
69281;SHT31;56392;51.082;17.080;2022-09-12T20:06:31;14.05;82.62
69281;SHT31;56392;51.082;17.080;2022-09-12T20:11:34;13.95;82.53
69281;SHT31;56392;51.082;17.080;2022-09-12T20:16:38;13.85;82.94
69281;SHT31;56392;51.082;17.080;2022-09-12T20:21:41;13.85;83.32
69281;SHT31;56392;51.082;17.080;2022-09-12T20:26:44;13.84;83.67
69281;SHT31;56392;51.082;17.080;2022-09-12T20:31:48;13.74;84.02
69281;SHT31;56392;51.082;17.080;2022-09-12T20:36:51;13.69;83.60
69281;SHT31;56392;51.082;17.080;2022-09-12T20:41:54;13.74;83.10
69281;SHT31;56392;51.082;17.080;2022-09-12T20:46:58;13.80;83.18
69281;SHT31;56392;51.082;17.080;2022-09-12T20:52:01;13.77;83.08
69281;SHT31;56392;51.082;17.080;2022-09-12T20:57:04;13.75;83.10
69281;SHT31;56392;51.082;17.080;2022-09-12T21:02:12;13.71;82.93
69281;SHT31;56392;51.082;17.080;2022-09-12T21:07:15;13.57;82.93
69281;SHT31;56392;51.082;17.080;2022-09-12T21:12:18;13.51;83.20
69281;SHT31;56392;51.082;17.080;2022-09-12T21:17:22;13.44;83.65
69281;SHT31;56392;51.082;17.080;2022-09-12T21:22:24;13.49;83.58
69281;SHT31;56392;51.082;17.080;2022-09-12T21:27:27;13.49;83.34
69281;SHT31;56392;51.082;17.080;2022-09-12T21:32:51;13.40;83.03
69281;SHT31;56392;51.082;17.080;2022-09-12T21:38:15;13.42;83.01
69281;SHT31;56392;51.082;17.080;2022-09-12T21:43:38;13.42;83.14
69281;SHT31;56392;51.082;17.080;2022-09-12T21:48:47;13.39;83.05
69281;SHT31;56392;51.082;17.080;2022-09-12T21:53:50;13.29;82.94
69281;SHT31;56392;51.082;17.080;2022-09-12T21:59:11;13.26;83.26
69281;SHT31;56392;51.082;17.080;2022-09-12T22:04:35;13.13;83.05
69281;SHT31;56392;51.082;17.080;2022-09-12T22:09:58;13.12;83.61
69281;SHT31;56392;51.082;17.080;2022-09-12T22:15:21;13.12;83.48
69281;SHT31;56392;51.082;17.080;2022-09-12T22:20:45;13.13;83.77
69281;SHT31;56392;51.082;17.080;2022-09-12T22:26:08;13.02;83.97
69281;SHT31;56392;51.082;17.080;2022-09-12T22:31:32;12.95;84.51
69281;SHT31;56392;51.082;17.080;2022-09-12T22:36:56;12.92;84.17
69281;SHT31;56392;51.082;17.080;2022-09-12T22:42:19;12.92;84.60
69281;SHT31;56392;51.082;17.080;2022-09-12T22:47:42;12.98;84.32
69281;SHT31;56392;51.082;17.080;2022-09-12T22:53:06;12.85;84.20
69281;SHT31;56392;51.082;17.080;2022-09-12T22:58:29;12.91;84.39
69281;SHT31;56392;51.082;17.080;2022-09-12T23:03:52;12.89;84.08
69281;SHT31;56392;51.082;17.080;2022-09-12T23:09:17;12.81;84.02
69281;SHT31;56392;51.082;17.080;2022-09-12T23:14:40;12.79;84.16
69281;SHT31;56392;51.082;17.080;2022-09-12T23:20:03;12.77;84.32
69281;SHT31;56392;51.082;17.080;2022-09-12T23:25:27;12.65;84.46
69281;SHT31;56392;51.082;17.080;2022-09-12T23:30:53;12.57;84.84
69281;SHT31;56392;51.082;17.080;2022-09-12T23:36:16;12.49;84.79
69281;SHT31;56392;51.082;17.080;2022-09-12T23:41:40;12.48;85.05
69281;SHT31;56392;51.082;17.080;2022-09-12T23:47:03;12.52;85.01
69281;SHT31;56392;51.082;17.080;2022-09-12T23:52:26;12.52;85.11
69281;SHT31;56392;51.082;17.080;2022-09-12T23:57:50;12.47;84.94
